sensor_id;sensor_type;location;lat;lon;timestamp;P1;durP1;ratioP1;P2;durP2;ratioP2
71916;SDS011;59793;46.506;6.674;2023-11-19T00:02:08;3.97;;;1.67;;
71916;SDS011;59793;46.506;6.674;2023-11-19T00:04:37;3.15;;;2.15;;
71916;SDS011;59793;46.506;6.674;2023-11-19T00:07:04;3.65;;;1.80;;
71916;SDS011;59793;46.506;6.674;2023-11-19T00:09:31;4.05;;;1.92;;
71916;SDS011;59793;46.506;6.674;2023-11-19T00:11:57;22.45;;;2.15;;
71916;SDS011;59793;46.506;6.674;2023-11-19T00:14:23;5.07;;;2.58;;
71916;SDS011;59793;46.506;6.674;2023-11-19T00:16:49;7.15;;;4.15;;
71916;SDS011;59793;46.506;6.674;2023-11-19T00:21:41;4.38;;;2.47;;
71916;SDS011;59793;46.506;6.674;2023-11-19T00:24:07;5.28;;;2.55;;
71916;SDS011;59793;46.506;6.674;2023-11-19T00:26:36;4.35;;;2.35;;
71916;SDS011;59793;46.506;6.674;2023-11-19T00:29:01;4.65;;;2.40;;
71916;SDS011;59793;46.506;6.674;2023-11-19T00:31:27;3.55;;;2.20;;
71916;SDS011;59793;46.506;6.674;2023-11-19T00:33:53;5.10;;;2.73;;
71916;SDS011;59793;46.506;6.674;2023-11-19T00:36:18;4.50;;;2.25;;
71916;SDS011;59793;46.506;6.674;2023-11-19T00:38:44;5.80;;;2.10;;
71916;SDS011;59793;46.506;6.674;2023-11-19T00:41:09;4.43;;;2.27;;
71916;SDS011;59793;46.506;6.674;2023-11-19T00:43:35;3.38;;;2.13;;
71916;SDS011;59793;46.506;6.674;2023-11-19T00:46:01;7.10;;;2.70;;
71916;SDS011;59793;46.506;6.674;2023-11-19T00:48:26;4.80;;;2.13;;
71916;SDS011;59793;46.506;6.674;2023-11-19T00:50:53;6.60;;;2.28;;
71916;SDS011;59793;46.506;6.674;2023-11-19T00:53:19;4.13;;;2.05;;
71916;SDS011;59793;46.506;6.674;2023-11-19T00:55:44;3.60;;;1.70;;
71916;SDS011;59793;46.506;6.674;2023-11-19T00:58:09;4.25;;;2.45;;
71916;SDS011;59793;46.506;6.674;2023-11-19T01:00:35;3.33;;;1.88;;
71916;SDS011;59793;46.506;6.674;2023-11-19T01:03:00;4.38;;;2.17;;
71916;SDS011;59793;46.506;6.674;2023-11-19T01:05:26;2.45;;;1.80;;
71916;SDS011;59793;46.506;6.674;2023-11-19T01:07:53;3.97;;;1.98;;
71916;SDS011;59793;46.506;6.674;2023-11-19T01:10:19;4.90;;;2.42;;
71916;SDS011;59793;46.506;6.674;2023-11-19T01:12:45;4.47;;;2.35;;
71916;SDS011;59793;46.506;6.674;2023-11-19T01:15:10;5.55;;;2.30;;
71916;SDS011;59793;46.506;6.674;2023-11-19T01:17:36;4.05;;;1.63;;
71916;SDS011;59793;46.506;6.674;2023-11-19T01:20:03;4.85;;;2.15;;
71916;SDS011;59793;46.506;6.674;2023-11-19T01:22:31;3.15;;;1.83;;
71916;SDS011;59793;46.506;6.674;2023-11-19T01:24:56;2.90;;;1.50;;
71916;SDS011;59793;46.506;6.674;2023-11-19T01:27:23;3.13;;;2.13;;
71916;SDS011;59793;46.506;6.674;2023-11-19T01:29:51;4.22;;;1.98;;
71916;SDS011;59793;46.506;6.674;2023-11-19T01:32:16;4.95;;;1.85;;
71916;SDS011;59793;46.506;6.674;2023-11-19T01:34:41;3.38;;;1.80;;
71916;SDS011;59793;46.506;6.674;2023-11-19T01:37:07;5.63;;;2.13;;
71916;SDS011;59793;46.506;6.674;2023-11-19T01:39:35;4.32;;;1.77;;
71916;SDS011;59793;46.506;6.674;2023-11-19T01:42:00;5.82;;;2.10;;
71916;SDS011;59793;46.506;6.674;2023-11-19T01:44:25;13.20;;;2.20;;
71916;SDS011;59793;46.506;6.674;2023-11-19T01:46:51;3.15;;;1.85;;
71916;SDS011;59793;46.506;6.674;2023-11-19T01:49:17;3.67;;;1.90;;
71916;SDS011;59793;46.506;6.674;2023-11-19T01:51:43;3.75;;;2.10;;
71916;SDS011;59793;46.506;6.674;2023-11-19T01:54:10;4.00;;;2.30;;
71916;SDS011;59793;46.506;6.674;2023-11-19T01:56:37;4.57;;;2.22;;
71916;SDS011;59793;46.506;6.674;2023-11-19T01:59:05;4.32;;;1.70;;
71916;SDS011;59793;46.506;6.674;2023-11-19T02:01:32;3.63;;;1.80;;
71916;SDS011;59793;46.506;6.674;2023-11-19T02:04:03;4.22;;;2.03;;
71916;SDS011;59793;46.506;6.674;2023-11-19T02:06:29;3.28;;;1.80;;
71916;SDS011;59793;46.506;6.674;2023-11-19T02:08:56;2.90;;;1.85;;
71916;SDS011;59793;46.506;6.674;2023-11-19T02:11:22;3.08;;;1.90;;
71916;SDS011;59793;46.506;6.674;2023-11-19T02:13:47;4.00;;;1.92;;
71916;SDS011;59793;46.506;6.674;2023-11-19T02:16:13;5.70;;;2.37;;
71916;SDS011;59793;46.506;6.674;2023-11-19T02:18:39;4.00;;;2.23;;
71916;SDS011;59793;46.506;6.674;2023-11-19T02:21:04;4.38;;;2.35;;
71916;SDS011;59793;46.506;6.674;2023-11-19T02:23:30;4.63;;;2.57;;
71916;SDS011;59793;46.506;6.674;2023-11-19T02:28:39;4.07;;;2.40;;
71916;SDS011;59793;46.506;6.674;2023-11-19T02:31:07;3.97;;;2.00;;
71916;SDS011;59793;46.506;6.674;2023-11-19T02:33:36;4.43;;;2.47;;
71916;SDS011;59793;46.506;6.674;2023-11-19T02:36:04;5.47;;;3.28;;
71916;SDS011;59793;46.506;6.674;2023-11-19T02:38:31;4.97;;;2.30;;
71916;SDS011;59793;46.506;6.674;2023-11-19T02:40:57;6.43;;;2.85;;
71916;SDS011;59793;46.506;6.674;2023-11-19T02:43:23;4.73;;;2.50;;
71916;SDS011;59793;46.506;6.674;2023-11-19T02:45:48;3.38;;;1.90;;
71916;SDS011;59793;46.506;6.674;2023-11-19T02:48:14;3.83;;;1.95;;
71916;SDS011;59793;46.506;6.674;2023-11-19T02:50:41;3.83;;;1.60;;
71916;SDS011;59793;46.506;6.674;2023-11-19T02:53:29;4.57;;;1.95;;
71916;SDS011;59793;46.506;6.674;2023-11-19T02:55:55;4.47;;;2.30;;
71916;SDS011;59793;46.506;6.674;2023-11-19T02:58:27;5.22;;;2.30;;
71916;SDS011;59793;46.506;6.674;2023-11-19T03:00:53;3.75;;;2.25;;
71916;SDS011;59793;46.506;6.674;2023-11-19T03:03:25;4.63;;;2.10;;
71916;SDS011;59793;46.506;6.674;2023-11-19T03:05:56;4.88;;;2.55;;
71916;SDS011;59793;46.506;6.674;2023-11-19T03:08:22;5.57;;;2.37;;
71916;SDS011;59793;46.506;6.674;2023-11-19T03:10:47;5.78;;;2.03;;
71916;SDS011;59793;46.506;6.674;2023-11-19T03:13:13;4.43;;;1.97;;
71916;SDS011;59793;46.506;6.674;2023-11-19T03:15:39;3.35;;;1.98;;
71916;SDS011;59793;46.506;6.674;2023-11-19T03:18:04;3.40;;;2.25;;
71916;SDS011;59793;46.506;6.674;2023-11-19T03:20:30;3.17;;;2.00;;
71916;SDS011;59793;46.506;6.674;2023-11-19T03:22:55;5.85;;;2.33;;
71916;SDS011;59793;46.506;6.674;2023-11-19T03:25:24;3.97;;;2.13;;
71916;SDS011;59793;46.506;6.674;2023-11-19T03:27:52;4.25;;;2.00;;
71916;SDS011;59793;46.506;6.674;2023-11-19T03:30:18;5.13;;;1.90;;
71916;SDS011;59793;46.506;6.674;2023-11-19T03:32:45;3.95;;;1.77;;
71916;SDS011;59793;46.506;6.674;2023-11-19T03:35:11;4.93;;;2.22;;
71916;SDS011;59793;46.506;6.674;2023-11-19T03:37:37;3.43;;;2.13;;
71916;SDS011;59793;46.506;6.674;2023-11-19T03:40:02;4.55;;;2.58;;
71916;SDS011;59793;46.506;6.674;2023-11-19T03:42:29;7.07;;;2.53;;
71916;SDS011;59793;46.506;6.674;2023-11-19T03:44:57;4.63;;;2.67;;
71916;SDS011;59793;46.506;6.674;2023-11-19T03:47:23;5.07;;;2.20;;
71916;SDS011;59793;46.506;6.674;2023-11-19T03:49:48;3.63;;;2.33;;
71916;SDS011;59793;46.506;6.674;2023-11-19T03:52:14;3.72;;;2.60;;
71916;SDS011;59793;46.506;6.674;2023-11-19T03:54:40;3.47;;;1.97;;
71916;SDS011;59793;46.506;6.674;2023-11-19T03:57:05;3.83;;;2.53;;
71916;SDS011;59793;46.506;6.674;2023-11-19T03:59:31;3.97;;;2.23;;
71916;SDS011;59793;46.506;6.674;2023-11-19T04:01:56;3.67;;;2.25;;
71916;SDS011;59793;46.506;6.674;2023-11-19T04:04:25;7.75;;;2.70;;
71916;SDS011;59793;46.506;6.674;2023-11-19T04:06:51;4.15;;;1.95;;
71916;SDS011;59793;46.506;6.674;2023-11-19T04:09:16;3.78;;;2.05;;
71916;SDS011;59793;46.506;6.674;2023-11-19T04:11:41;3.13;;;2.03;;
71916;SDS011;59793;46.506;6.674;2023-11-19T04:14:06;4.90;;;2.28;;
71916;SDS011;59793;46.506;6.674;2023-11-19T04:16:33;4.13;;;2.47;;
71916;SDS011;59793;46.506;6.674;2023-11-19T04:18:58;5.75;;;2.35;;
71916;SDS011;59793;46.506;6.674;2023-11-19T04:21:24;3.77;;;1.70;;
71916;SDS011;59793;46.506;6.674;2023-11-19T04:23:49;4.97;;;2.87;;
71916;SDS011;59793;46.506;6.674;2023-11-19T04:26:15;3.50;;;2.17;;
71916;SDS011;59793;46.506;6.674;2023-11-19T04:28:40;3.40;;;2.00;;
71916;SDS011;59793;46.506;6.674;2023-11-19T04:31:06;4.15;;;2.35;;
71916;SDS011;59793;46.506;6.674;2023-11-19T04:33:31;2.83;;;2.13;;
71916;SDS011;59793;46.506;6.674;2023-11-19T04:35:57;3.72;;;2.35;;
71916;SDS011;59793;46.506;6.674;2023-11-19T04:38:22;4.88;;;2.35;;
71916;SDS011;59793;46.506;6.674;2023-11-19T04:40:47;4.90;;;2.55;;
71916;SDS011;59793;46.506;6.674;2023-11-19T04:43:12;3.13;;;1.90;;
71916;SDS011;59793;46.506;6.674;2023-11-19T04:45:38;4.15;;;2.33;;
71916;SDS011;59793;46.506;6.674;2023-11-19T04:48:04;5.57;;;2.63;;
71916;SDS011;59793;46.506;6.674;2023-11-19T04:50:30;4.50;;;2.33;;
71916;SDS011;59793;46.506;6.674;2023-11-19T04:52:55;4.30;;;2.67;;
71916;SDS011;59793;46.506;6.674;2023-11-19T04:55:21;3.20;;;2.00;;
71916;SDS011;59793;46.506;6.674;2023-11-19T04:57:47;5.80;;;2.03;;
71916;SDS011;59793;46.506;6.674;2023-11-19T05:00:13;5.53;;;2.22;;
71916;SDS011;59793;46.506;6.674;2023-11-19T05:02:38;6.17;;;2.03;;
71916;SDS011;59793;46.506;6.674;2023-11-19T05:05:04;7.10;;;2.60;;
71916;SDS011;59793;46.506;6.674;2023-11-19T05:07:30;3.90;;;2.33;;
71916;SDS011;59793;46.506;6.674;2023-11-19T05:09:55;6.33;;;2.60;;
71916;SDS011;59793;46.506;6.674;2023-11-19T05:12:21;5.03;;;2.65;;
71916;SDS011;59793;46.506;6.674;2023-11-19T05:14:47;5.43;;;2.65;;
71916;SDS011;59793;46.506;6.674;2023-11-19T05:17:15;3.92;;;2.28;;
71916;SDS011;59793;46.506;6.674;2023-11-19T05:19:43;4.38;;;2.40;;
71916;SDS011;59793;46.506;6.674;2023-11-19T05:22:08;5.57;;;2.13;;
71916;SDS011;59793;46.506;6.674;2023-11-19T05:24:33;3.45;;;1.90;;
71916;SDS011;59793;46.506;6.674;2023-11-19T05:26:59;5.28;;;2.50;;
71916;SDS011;59793;46.506;6.674;2023-11-19T05:29:24;3.55;;;2.22;;
71916;SDS011;59793;46.506;6.674;2023-11-19T05:31:50;4.77;;;2.30;;
71916;SDS011;59793;46.506;6.674;2023-11-19T05:34:15;3.93;;;2.50;;
71916;SDS011;59793;46.506;6.674;2023-11-19T05:36:42;3.67;;;1.98;;
71916;SDS011;59793;46.506;6.674;2023-11-19T05:39:08;3.58;;;1.88;;
71916;SDS011;59793;46.506;6.674;2023-11-19T05:41:33;4.28;;;2.00;;
71916;SDS011;59793;46.506;6.674;2023-11-19T05:43:58;5.07;;;2.83;;
71916;SDS011;59793;46.506;6.674;2023-11-19T05:46:24;3.22;;;2.22;;
71916;SDS011;59793;46.506;6.674;2023-11-19T05:48:52;4.80;;;2.55;;
71916;SDS011;59793;46.506;6.674;2023-11-19T05:51:17;4.28;;;2.33;;
71916;SDS011;59793;46.506;6.674;2023-11-19T05:53:43;6.90;;;2.63;;
71916;SDS011;59793;46.506;6.674;2023-11-19T05:56:09;4.85;;;2.58;;
71916;SDS011;59793;46.506;6.674;2023-11-19T05:58:34;4.00;;;2.37;;
71916;SDS011;59793;46.506;6.674;2023-11-19T06:01:01;4.22;;;2.13;;
71916;SDS011;59793;46.506;6.674;2023-11-19T06:03:27;4.75;;;2.60;;
71916;SDS011;59793;46.506;6.674;2023-11-19T06:05:52;3.63;;;2.07;;
71916;SDS011;59793;46.506;6.674;2023-11-19T06:08:19;3.03;;;1.95;;
71916;SDS011;59793;46.506;6.674;2023-11-19T06:10:47;3.58;;;2.25;;
71916;SDS011;59793;46.506;6.674;2023-11-19T06:13:15;3.28;;;2.00;;
71916;SDS011;59793;46.506;6.674;2023-11-19T06:15:43;4.35;;;2.28;;
71916;SDS011;59793;46.506;6.674;2023-11-19T06:18:09;5.00;;;2.30;;
71916;SDS011;59793;46.506;6.674;2023-11-19T06:20:37;3.42;;;1.80;;
71916;SDS011;59793;46.506;6.674;2023-11-19T06:23:02;2.75;;;1.80;;
71916;SDS011;59793;46.506;6.674;2023-11-19T06:25:28;4.93;;;1.80;;
71916;SDS011;59793;46.506;6.674;2023-11-19T06:27:53;3.67;;;2.10;;
71916;SDS011;59793;46.506;6.674;2023-11-19T06:30:19;2.93;;;1.93;;
71916;SDS011;59793;46.506;6.674;2023-11-19T06:32:45;4.03;;;2.13;;
71916;SDS011;59793;46.506;6.674;2023-11-19T06:35:11;3.60;;;1.88;;
71916;SDS011;59793;46.506;6.674;2023-11-19T06:40:04;3.90;;;2.00;;
71916;SDS011;59793;46.506;6.674;2023-11-19T06:42:30;8.73;;;2.17;;
71916;SDS011;59793;46.506;6.674;2023-11-19T06:44:56;9.90;;;3.43;;
71916;SDS011;59793;46.506;6.674;2023-11-19T06:47:22;4.95;;;2.42;;
71916;SDS011;59793;46.506;6.674;2023-11-19T06:49:51;3.80;;;2.05;;
71916;SDS011;59793;46.506;6.674;2023-11-19T06:52:17;6.57;;;2.83;;
71916;SDS011;59793;46.506;6.674;2023-11-19T06:54:42;4.38;;;2.25;;
71916;SDS011;59793;46.506;6.674;2023-11-19T06:57:07;4.53;;;2.60;;
71916;SDS011;59793;46.506;6.674;2023-11-19T06:59:34;4.60;;;2.20;;
71916;SDS011;59793;46.506;6.674;2023-11-19T07:01:59;5.22;;;2.80;;
71916;SDS011;59793;46.506;6.674;2023-11-19T07:04:25;4.28;;;2.95;;
71916;SDS011;59793;46.506;6.674;2023-11-19T07:06:50;5.72;;;3.33;;
71916;SDS011;59793;46.506;6.674;2023-11-19T07:09:17;4.07;;;2.80;;
71916;SDS011;59793;46.506;6.674;2023-11-19T07:11:43;4.80;;;2.53;;
71916;SDS011;59793;46.506;6.674;2023-11-19T07:14:10;4.10;;;2.15;;
71916;SDS011;59793;46.506;6.674;2023-11-19T07:16:36;4.30;;;2.78;;
71916;SDS011;59793;46.506;6.674;2023-11-19T07:19:04;4.68;;;2.50;;
71916;SDS011;59793;46.506;6.674;2023-11-19T07:21:30;5.03;;;2.20;;
71916;SDS011;59793;46.506;6.674;2023-11-19T07:23:57;4.38;;;2.00;;
71916;SDS011;59793;46.506;6.674;2023-11-19T07:26:23;5.53;;;2.55;;
71916;SDS011;59793;46.506;6.674;2023-11-19T07:28:49;4.90;;;2.77;;
71916;SDS011;59793;46.506;6.674;2023-11-19T07:31:14;4.47;;;2.63;;
71916;SDS011;59793;46.506;6.674;2023-11-19T07:33:40;4.90;;;2.33;;
71916;SDS011;59793;46.506;6.674;2023-11-19T07:36:09;3.95;;;1.88;;
71916;SDS011;59793;46.506;6.674;2023-11-19T07:38:35;5.32;;;2.20;;
71916;SDS011;59793;46.506;6.674;2023-11-19T07:41:01;8.47;;;2.30;;
71916;SDS011;59793;46.506;6.674;2023-11-19T07:43:27;3.95;;;2.45;;
71916;SDS011;59793;46.506;6.674;2023-11-19T07:45:53;3.53;;;2.00;;
71916;SDS011;59793;46.506;6.674;2023-11-19T07:48:18;3.60;;;2.03;;
71916;SDS011;59793;46.506;6.674;2023-11-19T07:50:51;3.95;;;1.92;;
71916;SDS011;59793;46.506;6.674;2023-11-19T07:53:17;6.22;;;1.90;;
71916;SDS011;59793;46.506;6.674;2023-11-19T07:55:43;5.55;;;2.15;;
71916;SDS011;59793;46.506;6.674;2023-11-19T07:58:10;4.23;;;2.13;;
71916;SDS011;59793;46.506;6.674;2023-11-19T08:00:36;4.07;;;2.03;;
71916;SDS011;59793;46.506;6.674;2023-11-19T08:03:02;5.80;;;2.47;;
71916;SDS011;59793;46.506;6.674;2023-11-19T08:05:28;8.10;;;2.40;;
71916;SDS011;59793;46.506;6.674;2023-11-19T08:07:53;6.88;;;2.22;;
71916;SDS011;59793;46.506;6.674;2023-11-19T08:10:19;2.87;;;1.83;;
71916;SDS011;59793;46.506;6.674;2023-11-19T08:12:45;3.92;;;2.58;;
71916;SDS011;59793;46.506;6.674;2023-11-19T08:15:10;2.78;;;1.55;;
71916;SDS011;59793;46.506;6.674;2023-11-19T08:17:36;5.32;;;2.30;;
71916;SDS011;59793;46.506;6.674;2023-11-19T08:20:02;5.83;;;1.90;;
71916;SDS011;59793;46.506;6.674;2023-11-19T08:22:29;5.15;;;2.42;;
71916;SDS011;59793;46.506;6.674;2023-11-19T08:24:55;5.07;;;2.10;;
71916;SDS011;59793;46.506;6.674;2023-11-19T08:27:20;2.95;;;1.60;;
71916;SDS011;59793;46.506;6.674;2023-11-19T08:29:52;3.40;;;1.60;;
71916;SDS011;59793;46.506;6.674;2023-11-19T08:32:23;4.10;;;2.40;;
71916;SDS011;59793;46.506;6.674;2023-11-19T08:34:49;5.45;;;2.63;;
71916;SDS011;59793;46.506;6.674;2023-11-19T08:37:17;7.15;;;4.28;;
71916;SDS011;59793;46.506;6.674;2023-11-19T08:39:50;6.00;;;3.67;;
71916;SDS011;59793;46.506;6.674;2023-11-19T08:42:18;4.85;;;2.30;;
71916;SDS011;59793;46.506;6.674;2023-11-19T08:44:48;6.50;;;2.10;;
71916;SDS011;59793;46.506;6.674;2023-11-19T08:47:15;6.75;;;2.90;;
71916;SDS011;59793;46.506;6.674;2023-11-19T08:49:45;4.05;;;2.13;;
71916;SDS011;59793;46.506;6.674;2023-11-19T08:52:23;3.92;;;2.40;;
71916;SDS011;59793;46.506;6.674;2023-11-19T08:54:48;8.98;;;2.60;;
71916;SDS011;59793;46.506;6.674;2023-11-19T08:57:13;4.33;;;2.70;;
71916;SDS011;59793;46.506;6.674;2023-11-19T08:59:39;7.38;;;2.50;;
71916;SDS011;59793;46.506;6.674;2023-11-19T09:02:05;5.68;;;2.70;;
71916;SDS011;59793;46.506;6.674;2023-11-19T09:04:31;6.55;;;2.90;;
71916;SDS011;59793;46.506;6.674;2023-11-19T09:06:57;4.03;;;2.20;;
71916;SDS011;59793;46.506;6.674;2023-11-19T09:09:23;7.93;;;2.40;;
71916;SDS011;59793;46.506;6.674;2023-11-19T09:11:48;3.77;;;2.40;;
71916;SDS011;59793;46.506;6.674;2023-11-19T09:14:13;4.88;;;2.47;;
71916;SDS011;59793;46.506;6.674;2023-11-19T09:16:39;3.70;;;2.20;;
71916;SDS011;59793;46.506;6.674;2023-11-19T09:19:04;3.38;;;1.52;;
71916;SDS011;59793;46.506;6.674;2023-11-19T09:21:30;4.10;;;2.43;;
71916;SDS011;59793;46.506;6.674;2023-11-19T09:23:58;4.30;;;2.30;;
71916;SDS011;59793;46.506;6.674;2023-11-19T09:26:25;3.78;;;2.03;;
71916;SDS011;59793;46.506;6.674;2023-11-19T09:28:52;6.65;;;2.50;;
71916;SDS011;59793;46.506;6.674;2023-11-19T09:31:22;4.07;;;2.63;;
71916;SDS011;59793;46.506;6.674;2023-11-19T09:33:49;4.07;;;2.47;;
71916;SDS011;59793;46.506;6.674;2023-11-19T09:36:15;3.67;;;2.40;;
71916;SDS011;59793;46.506;6.674;2023-11-19T09:38:41;5.70;;;2.33;;
71916;SDS011;59793;46.506;6.674;2023-11-19T09:41:11;7.22;;;2.80;;
71916;SDS011;59793;46.506;6.674;2023-11-19T09:43:40;6.15;;;3.03;;
71916;SDS011;59793;46.506;6.674;2023-11-19T09:46:07;5.75;;;2.83;;
71916;SDS011;59793;46.506;6.674;2023-11-19T09:48:37;8.45;;;3.28;;
71916;SDS011;59793;46.506;6.674;2023-11-19T09:51:07;6.60;;;3.15;;
71916;SDS011;59793;46.506;6.674;2023-11-19T09:53:37;5.32;;;2.95;;
71916;SDS011;59793;46.506;6.674;2023-11-19T09:56:03;5.10;;;2.97;;
71916;SDS011;59793;46.506;6.674;2023-11-19T09:58:31;6.63;;;3.17;;
71916;SDS011;59793;46.506;6.674;2023-11-19T10:00:58;7.38;;;3.10;;
71916;SDS011;59793;46.506;6.674;2023-11-19T10:03:33;6.45;;;3.22;;
71916;SDS011;59793;46.506;6.674;2023-11-19T10:06:02;6.32;;;2.83;;
71916;SDS011;59793;46.506;6.674;2023-11-19T10:08:28;7.18;;;3.28;;
71916;SDS011;59793;46.506;6.674;2023-11-19T10:10:54;6.38;;;3.17;;
71916;SDS011;59793;46.506;6.674;2023-11-19T10:13:20;4.63;;;2.65;;
71916;SDS011;59793;46.506;6.674;2023-11-19T10:15:51;8.73;;;3.80;;
71916;SDS011;59793;46.506;6.674;2023-11-19T10:18:18;7.50;;;3.43;;
71916;SDS011;59793;46.506;6.674;2023-11-19T10:20:43;7.05;;;3.72;;
71916;SDS011;59793;46.506;6.674;2023-11-19T10:25:45;7.55;;;3.05;;
71916;SDS011;59793;46.506;6.674;2023-11-19T10:28:14;7.90;;;3.63;;
71916;SDS011;59793;46.506;6.674;2023-11-19T10:30:42;5.20;;;3.00;;
71916;SDS011;59793;46.506;6.674;2023-11-19T10:33:09;4.93;;;3.20;;
71916;SDS011;59793;46.506;6.674;2023-11-19T10:35:55;5.35;;;2.95;;
71916;SDS011;59793;46.506;6.674;2023-11-19T10:38:22;4.65;;;2.88;;
71916;SDS011;59793;46.506;6.674;2023-11-19T10:40:48;5.85;;;2.85;;
71916;SDS011;59793;46.506;6.674;2023-11-19T10:43:15;7.13;;;3.90;;
71916;SDS011;59793;46.506;6.674;2023-11-19T10:45:42;7.13;;;4.75;;
71916;SDS011;59793;46.506;6.674;2023-11-19T10:48:08;6.60;;;4.88;;
71916;SDS011;59793;46.506;6.674;2023-11-19T10:50:35;6.80;;;4.10;;
71916;SDS011;59793;46.506;6.674;2023-11-19T10:53:02;13.10;;;5.18;;
71916;SDS011;59793;46.506;6.674;2023-11-19T10:55:30;8.13;;;4.75;;
71916;SDS011;59793;46.506;6.674;2023-11-19T10:58:01;8.68;;;3.95;;
71916;SDS011;59793;46.506;6.674;2023-11-19T11:01:06;6.78;;;4.53;;
71916;SDS011;59793;46.506;6.674;2023-11-19T11:03:29;7.05;;;4.55;;
71916;SDS011;59793;46.506;6.674;2023-11-19T11:05:57;5.78;;;3.60;;
71916;SDS011;59793;46.506;6.674;2023-11-19T11:08:24;6.50;;;3.80;;
71916;SDS011;59793;46.506;6.674;2023-11-19T11:10:53;6.17;;;3.23;;
71916;SDS011;59793;46.506;6.674;2023-11-19T11:13:22;7.03;;;3.55;;
71916;SDS011;59793;46.506;6.674;2023-11-19T11:15:49;9.90;;;4.97;;
71916;SDS011;59793;46.506;6.674;2023-11-19T11:18:18;7.00;;;3.78;;
71916;SDS011;59793;46.506;6.674;2023-11-19T11:20:44;7.47;;;4.13;;
71916;SDS011;59793;46.506;6.674;2023-11-19T11:28:23;5.13;;;3.37;;
71916;SDS011;59793;46.506;6.674;2023-11-19T11:36:50;5.80;;;4.00;;
71916;SDS011;59793;46.506;6.674;2023-11-19T11:39:35;8.77;;;4.47;;
71916;SDS011;59793;46.506;6.674;2023-11-19T11:50:11;5.45;;;2.78;;
71916;SDS011;59793;46.506;6.674;2023-11-19T11:55:24;7.90;;;3.22;;
71916;SDS011;59793;46.506;6.674;2023-11-19T11:57:50;3.85;;;2.40;;
71916;SDS011;59793;46.506;6.674;2023-11-19T12:00:22;6.72;;;3.15;;
71916;SDS011;59793;46.506;6.674;2023-11-19T12:02:52;7.80;;;4.05;;
71916;SDS011;59793;46.506;6.674;2023-11-19T12:05:20;4.32;;;2.80;;
71916;SDS011;59793;46.506;6.674;2023-11-19T12:10:28;5.32;;;2.63;;
71916;SDS011;59793;46.506;6.674;2023-11-19T12:12:59;4.72;;;2.78;;
71916;SDS011;59793;46.506;6.674;2023-11-19T12:15:25;4.68;;;3.15;;
71916;SDS011;59793;46.506;6.674;2023-11-19T12:17:52;6.30;;;2.85;;
71916;SDS011;59793;46.506;6.674;2023-11-19T12:20:21;4.25;;;2.53;;
71916;SDS011;59793;46.506;6.674;2023-11-19T12:22:52;4.47;;;2.58;;
71916;SDS011;59793;46.506;6.674;2023-11-19T12:25:19;7.05;;;2.45;;
71916;SDS011;59793;46.506;6.674;2023-11-19T12:27:48;3.75;;;2.10;;
71916;SDS011;59793;46.506;6.674;2023-11-19T12:30:22;4.93;;;2.83;;
71916;SDS011;59793;46.506;6.674;2023-11-19T12:32:49;5.53;;;2.60;;
71916;SDS011;59793;46.506;6.674;2023-11-19T12:35:15;4.70;;;2.72;;
71916;SDS011;59793;46.506;6.674;2023-11-19T12:37:42;4.85;;;2.75;;
71916;SDS011;59793;46.506;6.674;2023-11-19T12:43:02;6.63;;;2.92;;
71916;SDS011;59793;46.506;6.674;2023-11-19T12:45:36;6.90;;;3.40;;
71916;SDS011;59793;46.506;6.674;2023-11-19T12:48:06;6.30;;;3.80;;
71916;SDS011;59793;46.506;6.674;2023-11-19T12:50:55;6.53;;;3.50;;
71916;SDS011;59793;46.506;6.674;2023-11-19T12:53:26;5.75;;;3.83;;
71916;SDS011;59793;46.506;6.674;2023-11-19T12:55:55;7.13;;;3.55;;
71916;SDS011;59793;46.506;6.674;2023-11-19T12:58:39;6.43;;;3.45;;
71916;SDS011;59793;46.506;6.674;2023-11-19T13:01:06;6.13;;;2.97;;
71916;SDS011;59793;46.506;6.674;2023-11-19T13:03:34;7.07;;;3.30;;
71916;SDS011;59793;46.506;6.674;2023-11-19T13:06:03;7.60;;;2.40;;
71916;SDS011;59793;46.506;6.674;2023-11-19T13:08:37;5.15;;;2.25;;
71916;SDS011;59793;46.506;6.674;2023-11-19T13:11:03;3.55;;;1.92;;
71916;SDS011;59793;46.506;6.674;2023-11-19T13:13:28;3.80;;;2.33;;
71916;SDS011;59793;46.506;6.674;2023-11-19T13:16:01;4.97;;;2.60;;
71916;SDS011;59793;46.506;6.674;2023-11-19T13:18:28;5.57;;;3.78;;
71916;SDS011;59793;46.506;6.674;2023-11-19T13:20:54;4.43;;;2.93;;
71916;SDS011;59793;46.506;6.674;2023-11-19T13:23:22;4.72;;;3.20;;
71916;SDS011;59793;46.506;6.674;2023-11-19T13:25:47;5.37;;;2.90;;
71916;SDS011;59793;46.506;6.674;2023-11-19T13:28:13;6.73;;;3.27;;
71916;SDS011;59793;46.506;6.674;2023-11-19T13:30:39;5.83;;;3.37;;
71916;SDS011;59793;46.506;6.674;2023-11-19T13:33:08;5.38;;;3.10;;
71916;SDS011;59793;46.506;6.674;2023-11-19T13:35:37;6.22;;;3.40;;
71916;SDS011;59793;46.506;6.674;2023-11-19T13:38:03;6.55;;;3.83;;
71916;SDS011;59793;46.506;6.674;2023-11-19T13:40:29;5.63;;;3.23;;
71916;SDS011;59793;46.506;6.674;2023-11-19T13:42:54;6.55;;;3.13;;
71916;SDS011;59793;46.506;6.674;2023-11-19T13:45:20;6.28;;;3.67;;
71916;SDS011;59793;46.506;6.674;2023-11-19T13:47:45;5.33;;;3.40;;
71916;SDS011;59793;46.506;6.674;2023-11-19T13:50:14;5.90;;;2.90;;
71916;SDS011;59793;46.506;6.674;2023-11-19T13:52:42;6.70;;;2.83;;
71916;SDS011;59793;46.506;6.674;2023-11-19T13:55:10;6.13;;;4.10;;
71916;SDS011;59793;46.506;6.674;2023-11-19T13:57:36;6.60;;;3.10;;
71916;SDS011;59793;46.506;6.674;2023-11-19T14:00:02;5.85;;;3.50;;
71916;SDS011;59793;46.506;6.674;2023-11-19T14:02:33;5.68;;;3.10;;
71916;SDS011;59793;46.506;6.674;2023-11-19T14:07:24;7.97;;;3.58;;
71916;SDS011;59793;46.506;6.674;2023-11-19T14:09:49;5.03;;;3.27;;
71916;SDS011;59793;46.506;6.674;2023-11-19T14:12:15;6.40;;;3.80;;
71916;SDS011;59793;46.506;6.674;2023-11-19T14:14:41;8.37;;;4.60;;
71916;SDS011;59793;46.506;6.674;2023-11-19T14:17:12;6.72;;;4.22;;
71916;SDS011;59793;46.506;6.674;2023-11-19T14:22:34;7.57;;;3.67;;
71916;SDS011;59793;46.506;6.674;2023-11-19T14:25:28;9.65;;;3.75;;
71916;SDS011;59793;46.506;6.674;2023-11-19T14:28:03;6.85;;;4.43;;
71916;SDS011;59793;46.506;6.674;2023-11-19T14:31:11;6.47;;;4.97;;
71916;SDS011;59793;46.506;6.674;2023-11-19T14:33:40;7.70;;;4.10;;
71916;SDS011;59793;46.506;6.674;2023-11-19T14:38:33;6.07;;;4.13;;
71916;SDS011;59793;46.506;6.674;2023-11-19T14:41:07;6.25;;;4.47;;
71916;SDS011;59793;46.506;6.674;2023-11-19T14:56:27;5.60;;;3.92;;
71916;SDS011;59793;46.506;6.674;2023-11-19T14:58:55;6.90;;;4.30;;
71916;SDS011;59793;46.506;6.674;2023-11-19T15:01:26;6.32;;;3.40;;
71916;SDS011;59793;46.506;6.674;2023-11-19T15:03:53;6.82;;;3.78;;
71916;SDS011;59793;46.506;6.674;2023-11-19T15:09:00;6.95;;;4.05;;
71916;SDS011;59793;46.506;6.674;2023-11-19T15:11:38;6.90;;;4.30;;
71916;SDS011;59793;46.506;6.674;2023-11-19T15:19:18;5.97;;;3.88;;
71916;SDS011;59793;46.506;6.674;2023-11-19T15:21:54;7.22;;;3.70;;
71916;SDS011;59793;46.506;6.674;2023-11-19T15:24:20;4.50;;;3.40;;
71916;SDS011;59793;46.506;6.674;2023-11-19T16:33:02;5.32;;;3.55;;
71916;SDS011;59793;46.506;6.674;2023-11-19T17:40:28;5.45;;;3.90;;
71916;SDS011;59793;46.506;6.674;2023-11-19T17:42:54;6.33;;;3.90;;
71916;SDS011;59793;46.506;6.674;2023-11-19T17:45:30;4.72;;;3.53;;
71916;SDS011;59793;46.506;6.674;2023-11-19T17:48:38;7.20;;;4.78;;
71916;SDS011;59793;46.506;6.674;2023-11-19T17:51:04;8.73;;;4.40;;
71916;SDS011;59793;46.506;6.674;2023-11-19T17:53:32;6.97;;;4.15;;
71916;SDS011;59793;46.506;6.674;2023-11-19T17:56:01;6.35;;;4.15;;
71916;SDS011;59793;46.506;6.674;2023-11-19T17:58:28;5.63;;;4.07;;
71916;SDS011;59793;46.506;6.674;2023-11-19T18:00:55;6.63;;;4.05;;
71916;SDS011;59793;46.506;6.674;2023-11-19T18:03:22;7.93;;;4.22;;
71916;SDS011;59793;46.506;6.674;2023-11-19T18:05:49;7.38;;;5.10;;
71916;SDS011;59793;46.506;6.674;2023-11-19T18:08:16;6.97;;;5.28;;